sensor_id;sensor_type;location;lat;lon;timestamp;P1;durP1;ratioP1;P2;durP2;ratioP2
70899;SDS011;67902;52.154;5.430;2023-11-21T00:01:02;56.95;;;4.18;;
70899;SDS011;67902;52.154;5.430;2023-11-21T00:03:30;17.20;;;3.63;;
70899;SDS011;67902;52.154;5.430;2023-11-21T00:05:57;26.83;;;4.28;;
70899;SDS011;67902;52.154;5.430;2023-11-21T00:08:24;26.05;;;4.28;;
70899;SDS011;67902;52.154;5.430;2023-11-21T00:10:50;55.50;;;6.97;;
70899;SDS011;67902;52.154;5.430;2023-11-21T00:13:17;34.58;;;4.93;;
70899;SDS011;67902;52.154;5.430;2023-11-21T00:15:44;17.02;;;5.43;;
70899;SDS011;67902;52.154;5.430;2023-11-21T00:18:11;40.85;;;5.20;;
70899;SDS011;67902;52.154;5.430;2023-11-21T00:20:37;40.17;;;6.30;;
70899;SDS011;67902;52.154;5.430;2023-11-21T00:23:04;30.27;;;6.40;;
70899;SDS011;67902;52.154;5.430;2023-11-21T00:25:30;40.28;;;4.72;;
70899;SDS011;67902;52.154;5.430;2023-11-21T00:27:58;26.67;;;5.85;;
70899;SDS011;67902;52.154;5.430;2023-11-21T00:30:25;20.85;;;4.40;;
70899;SDS011;67902;52.154;5.430;2023-11-21T00:32:51;26.15;;;4.80;;
70899;SDS011;67902;52.154;5.430;2023-11-21T00:35:18;50.85;;;5.07;;
70899;SDS011;67902;52.154;5.430;2023-11-21T00:37:44;55.05;;;5.03;;
70899;SDS011;67902;52.154;5.430;2023-11-21T00:40:11;23.55;;;4.28;;
70899;SDS011;67902;52.154;5.430;2023-11-21T00:42:39;18.58;;;3.70;;
70899;SDS011;67902;52.154;5.430;2023-11-21T00:45:06;44.75;;;4.88;;
70899;SDS011;67902;52.154;5.430;2023-11-21T00:47:33;33.00;;;4.10;;
70899;SDS011;67902;52.154;5.430;2023-11-21T00:49:59;38.83;;;5.22;;
70899;SDS011;67902;52.154;5.430;2023-11-21T00:52:26;36.00;;;4.32;;
70899;SDS011;67902;52.154;5.430;2023-11-21T00:54:53;44.45;;;4.10;;
70899;SDS011;67902;52.154;5.430;2023-11-21T00:57:19;28.23;;;3.83;;
70899;SDS011;67902;52.154;5.430;2023-11-21T00:59:46;13.60;;;3.60;;
70899;SDS011;67902;52.154;5.430;2023-11-21T01:02:12;68.18;;;5.72;;
70899;SDS011;67902;52.154;5.430;2023-11-21T01:04:39;40.10;;;4.45;;
70899;SDS011;67902;52.154;5.430;2023-11-21T01:07:15;62.03;;;5.07;;
70899;SDS011;67902;52.154;5.430;2023-11-21T01:09:41;23.85;;;3.78;;
70899;SDS011;67902;52.154;5.430;2023-11-21T01:12:10;18.35;;;5.50;;
70899;SDS011;67902;52.154;5.430;2023-11-21T01:14:37;19.60;;;5.25;;
70899;SDS011;67902;52.154;5.430;2023-11-21T01:17:04;15.18;;;5.13;;
70899;SDS011;67902;52.154;5.430;2023-11-21T01:19:31;13.70;;;4.80;;
70899;SDS011;67902;52.154;5.430;2023-11-21T01:21:58;13.00;;;5.38;;
70899;SDS011;67902;52.154;5.430;2023-11-21T01:24:24;10.05;;;4.53;;
70899;SDS011;67902;52.154;5.430;2023-11-21T01:26:51;17.67;;;5.30;;
70899;SDS011;67902;52.154;5.430;2023-11-21T01:29:18;10.13;;;4.55;;
70899;SDS011;67902;52.154;5.430;2023-11-21T01:31:44;10.93;;;4.88;;
70899;SDS011;67902;52.154;5.430;2023-11-21T01:34:11;14.60;;;5.28;;
70899;SDS011;67902;52.154;5.430;2023-11-21T01:36:37;11.70;;;4.85;;
70899;SDS011;67902;52.154;5.430;2023-11-21T01:39:04;14.82;;;5.45;;
70899;SDS011;67902;52.154;5.430;2023-11-21T01:41:37;15.75;;;5.88;;
70899;SDS011;67902;52.154;5.430;2023-11-21T01:44:03;12.63;;;5.50;;
70899;SDS011;67902;52.154;5.430;2023-11-21T01:46:34;13.10;;;5.32;;
70899;SDS011;67902;52.154;5.430;2023-11-21T01:49:01;16.90;;;6.00;;
70899;SDS011;67902;52.154;5.430;2023-11-21T01:51:28;14.50;;;5.18;;
70899;SDS011;67902;52.154;5.430;2023-11-21T01:53:55;13.10;;;5.70;;
70899;SDS011;67902;52.154;5.430;2023-11-21T01:56:22;14.90;;;6.53;;
70899;SDS011;67902;52.154;5.430;2023-11-21T01:58:49;15.77;;;5.95;;
70899;SDS011;67902;52.154;5.430;2023-11-21T02:01:16;12.85;;;5.47;;
70899;SDS011;67902;52.154;5.430;2023-11-21T02:03:45;16.20;;;6.03;;
70899;SDS011;67902;52.154;5.430;2023-11-21T02:06:12;13.43;;;5.38;;
70899;SDS011;67902;52.154;5.430;2023-11-21T02:08:38;17.48;;;6.45;;
70899;SDS011;67902;52.154;5.430;2023-11-21T02:11:05;15.10;;;5.35;;
70899;SDS011;67902;52.154;5.430;2023-11-21T02:13:32;14.35;;;6.05;;
70899;SDS011;67902;52.154;5.430;2023-11-21T02:15:59;12.77;;;5.63;;
70899;SDS011;67902;52.154;5.430;2023-11-21T02:18:26;16.23;;;5.57;;
70899;SDS011;67902;52.154;5.430;2023-11-21T02:20:55;14.80;;;6.18;;
70899;SDS011;67902;52.154;5.430;2023-11-21T02:23:22;14.90;;;6.15;;
70899;SDS011;67902;52.154;5.430;2023-11-21T02:25:49;13.10;;;5.80;;
70899;SDS011;67902;52.154;5.430;2023-11-21T02:28:16;16.55;;;6.03;;
70899;SDS011;67902;52.154;5.430;2023-11-21T02:30:52;12.63;;;5.70;;
70899;SDS011;67902;52.154;5.430;2023-11-21T02:33:22;13.80;;;5.55;;
70899;SDS011;67902;52.154;5.430;2023-11-21T02:35:49;14.88;;;5.75;;
70899;SDS011;67902;52.154;5.430;2023-11-21T02:38:17;11.27;;;5.43;;
70899;SDS011;67902;52.154;5.430;2023-11-21T02:40:44;14.30;;;5.28;;
70899;SDS011;67902;52.154;5.430;2023-11-21T02:43:11;18.60;;;6.00;;
70899;SDS011;67902;52.154;5.430;2023-11-21T02:45:37;16.25;;;5.22;;
70899;SDS011;67902;52.154;5.430;2023-11-21T02:48:04;14.77;;;5.35;;
70899;SDS011;67902;52.154;5.430;2023-11-21T02:50:31;15.13;;;5.10;;
70899;SDS011;67902;52.154;5.430;2023-11-21T02:52:57;14.05;;;5.35;;
70899;SDS011;67902;52.154;5.430;2023-11-21T02:55:24;13.02;;;5.20;;
70899;SDS011;67902;52.154;5.430;2023-11-21T02:57:51;12.60;;;5.35;;
70899;SDS011;67902;52.154;5.430;2023-11-21T03:00:17;13.73;;;5.57;;
70899;SDS011;67902;52.154;5.430;2023-11-21T03:02:44;14.00;;;5.75;;
70899;SDS011;67902;52.154;5.430;2023-11-21T03:05:11;15.93;;;4.88;;
70899;SDS011;67902;52.154;5.430;2023-11-21T03:07:38;12.05;;;4.65;;
70899;SDS011;67902;52.154;5.430;2023-11-21T03:10:05;13.30;;;5.15;;
70899;SDS011;67902;52.154;5.430;2023-11-21T03:12:35;12.75;;;5.30;;
70899;SDS011;67902;52.154;5.430;2023-11-21T03:15:02;12.30;;;4.88;;
70899;SDS011;67902;52.154;5.430;2023-11-21T03:17:28;12.00;;;4.75;;
70899;SDS011;67902;52.154;5.430;2023-11-21T03:19:55;12.73;;;5.35;;
70899;SDS011;67902;52.154;5.430;2023-11-21T03:24:50;14.93;;;5.18;;
70899;SDS011;67902;52.154;5.430;2023-11-21T03:27:16;11.15;;;4.68;;
70899;SDS011;67902;52.154;5.430;2023-11-21T03:29:42;18.55;;;4.60;;
70899;SDS011;67902;52.154;5.430;2023-11-21T03:32:09;15.07;;;4.93;;
70899;SDS011;67902;52.154;5.430;2023-11-21T03:34:41;13.13;;;5.10;;
70899;SDS011;67902;52.154;5.430;2023-11-21T03:37:20;12.07;;;4.63;;
70899;SDS011;67902;52.154;5.430;2023-11-21T03:39:47;11.00;;;4.53;;
70899;SDS011;67902;52.154;5.430;2023-11-21T03:42:13;12.93;;;4.75;;
70899;SDS011;67902;52.154;5.430;2023-11-21T03:44:40;12.40;;;4.30;;
70899;SDS011;67902;52.154;5.430;2023-11-21T03:47:06;12.13;;;4.75;;
70899;SDS011;67902;52.154;5.430;2023-11-21T03:49:32;14.95;;;5.35;;
70899;SDS011;67902;52.154;5.430;2023-11-21T03:51:59;14.52;;;5.40;;
70899;SDS011;67902;52.154;5.430;2023-11-21T03:54:25;13.00;;;4.50;;
70899;SDS011;67902;52.154;5.430;2023-11-21T03:56:52;13.52;;;5.30;;
70899;SDS011;67902;52.154;5.430;2023-11-21T03:59:18;12.50;;;4.70;;
70899;SDS011;67902;52.154;5.430;2023-11-21T04:01:45;11.05;;;4.78;;
70899;SDS011;67902;52.154;5.430;2023-11-21T04:04:11;12.68;;;4.70;;
70899;SDS011;67902;52.154;5.430;2023-11-21T04:06:38;12.25;;;4.53;;
70899;SDS011;67902;52.154;5.430;2023-11-21T04:09:05;13.38;;;4.60;;
70899;SDS011;67902;52.154;5.430;2023-11-21T04:11:31;15.13;;;5.25;;
70899;SDS011;67902;52.154;5.430;2023-11-21T04:13:58;13.27;;;5.00;;
70899;SDS011;67902;52.154;5.430;2023-11-21T04:16:24;12.98;;;4.93;;
70899;SDS011;67902;52.154;5.430;2023-11-21T04:18:51;16.33;;;5.43;;
70899;SDS011;67902;52.154;5.430;2023-11-21T04:21:17;14.73;;;4.93;;
70899;SDS011;67902;52.154;5.430;2023-11-21T04:23:44;14.90;;;4.93;;
70899;SDS011;67902;52.154;5.430;2023-11-21T04:26:10;17.33;;;5.07;;
70899;SDS011;67902;52.154;5.430;2023-11-21T04:28:37;13.93;;;5.43;;
70899;SDS011;67902;52.154;5.430;2023-11-21T04:31:03;15.60;;;5.63;;
70899;SDS011;67902;52.154;5.430;2023-11-21T04:33:30;17.52;;;5.35;;
70899;SDS011;67902;52.154;5.430;2023-11-21T04:35:57;14.80;;;5.72;;
70899;SDS011;67902;52.154;5.430;2023-11-21T04:38:24;14.27;;;4.80;;
70899;SDS011;67902;52.154;5.430;2023-11-21T04:40:50;14.32;;;5.47;;
70899;SDS011;67902;52.154;5.430;2023-11-21T04:43:17;15.23;;;5.90;;
70899;SDS011;67902;52.154;5.430;2023-11-21T04:45:43;15.63;;;5.55;;
70899;SDS011;67902;52.154;5.430;2023-11-21T04:48:10;15.00;;;6.00;;
70899;SDS011;67902;52.154;5.430;2023-11-21T04:50:37;13.10;;;4.88;;
70899;SDS011;67902;52.154;5.430;2023-11-21T04:53:03;14.88;;;5.28;;
70899;SDS011;67902;52.154;5.430;2023-11-21T04:55:30;15.07;;;5.53;;
70899;SDS011;67902;52.154;5.430;2023-11-21T04:57:56;13.27;;;5.80;;
70899;SDS011;67902;52.154;5.430;2023-11-21T05:00:23;16.70;;;5.60;;
70899;SDS011;67902;52.154;5.430;2023-11-21T05:02:50;16.40;;;5.72;;
70899;SDS011;67902;52.154;5.430;2023-11-21T05:05:17;17.55;;;6.38;;
70899;SDS011;67902;52.154;5.430;2023-11-21T05:07:44;24.48;;;5.88;;
70899;SDS011;67902;52.154;5.430;2023-11-21T05:10:10;15.90;;;5.32;;
70899;SDS011;67902;52.154;5.430;2023-11-21T05:12:39;21.65;;;6.85;;
70899;SDS011;67902;52.154;5.430;2023-11-21T05:15:06;16.00;;;6.25;;
70899;SDS011;67902;52.154;5.430;2023-11-21T05:17:39;21.50;;;6.90;;
70899;SDS011;67902;52.154;5.430;2023-11-21T05:20:10;16.00;;;6.43;;
70899;SDS011;67902;52.154;5.430;2023-11-21T05:22:38;18.67;;;6.00;;
70899;SDS011;67902;52.154;5.430;2023-11-21T05:25:05;14.68;;;5.93;;
70899;SDS011;67902;52.154;5.430;2023-11-21T05:27:35;17.73;;;6.07;;
70899;SDS011;67902;52.154;5.430;2023-11-21T05:30:02;16.50;;;6.35;;
70899;SDS011;67902;52.154;5.430;2023-11-21T05:32:33;16.92;;;6.13;;
70899;SDS011;67902;52.154;5.430;2023-11-21T05:35:00;19.88;;;6.07;;
70899;SDS011;67902;52.154;5.430;2023-11-21T05:37:27;18.33;;;6.68;;
70899;SDS011;67902;52.154;5.430;2023-11-21T05:39:54;20.30;;;6.15;;
70899;SDS011;67902;52.154;5.430;2023-11-21T05:42:23;15.00;;;5.90;;
70899;SDS011;67902;52.154;5.430;2023-11-21T05:44:49;16.90;;;7.05;;
70899;SDS011;67902;52.154;5.430;2023-11-21T05:47:16;14.82;;;6.50;;
70899;SDS011;67902;52.154;5.430;2023-11-21T05:49:43;15.75;;;5.97;;
70899;SDS011;67902;52.154;5.430;2023-11-21T05:52:11;21.45;;;6.80;;
70899;SDS011;67902;52.154;5.430;2023-11-21T05:54:37;18.25;;;7.05;;
70899;SDS011;67902;52.154;5.430;2023-11-21T05:57:04;15.07;;;5.70;;
70899;SDS011;67902;52.154;5.430;2023-11-21T05:59:30;19.63;;;6.68;;
70899;SDS011;67902;52.154;5.430;2023-11-21T06:01:57;19.67;;;5.80;;
70899;SDS011;67902;52.154;5.430;2023-11-21T06:06:52;21.05;;;6.13;;
70899;SDS011;67902;52.154;5.430;2023-11-21T06:09:19;14.30;;;5.90;;
70899;SDS011;67902;52.154;5.430;2023-11-21T06:11:47;17.48;;;5.65;;
70899;SDS011;67902;52.154;5.430;2023-11-21T06:14:14;20.52;;;6.43;;
70899;SDS011;67902;52.154;5.430;2023-11-21T06:16:44;11.75;;;5.05;;
70899;SDS011;67902;52.154;5.430;2023-11-21T06:19:11;15.90;;;5.55;;
70899;SDS011;67902;52.154;5.430;2023-11-21T06:21:38;16.77;;;6.10;;
70899;SDS011;67902;52.154;5.430;2023-11-21T06:24:05;17.17;;;6.38;;
70899;SDS011;67902;52.154;5.430;2023-11-21T06:26:32;16.33;;;6.00;;
70899;SDS011;67902;52.154;5.430;2023-11-21T06:28:58;28.88;;;9.30;;
70899;SDS011;67902;52.154;5.430;2023-11-21T06:31:25;25.50;;;12.63;;
70899;SDS011;67902;52.154;5.430;2023-11-21T06:33:52;20.23;;;6.32;;
70899;SDS011;67902;52.154;5.430;2023-11-21T06:36:19;23.15;;;9.57;;
70899;SDS011;67902;52.154;5.430;2023-11-21T06:38:45;19.42;;;8.63;;
70899;SDS011;67902;52.154;5.430;2023-11-21T06:41:12;20.02;;;10.25;;
70899;SDS011;67902;52.154;5.430;2023-11-21T06:43:41;25.15;;;11.80;;
70899;SDS011;67902;52.154;5.430;2023-11-21T06:46:12;20.63;;;10.40;;
70899;SDS011;67902;52.154;5.430;2023-11-21T06:48:42;25.30;;;10.05;;
70899;SDS011;67902;52.154;5.430;2023-11-21T06:51:10;17.42;;;7.82;;
70899;SDS011;67902;52.154;5.430;2023-11-21T06:53:47;18.77;;;6.65;;
70899;SDS011;67902;52.154;5.430;2023-11-21T06:56:17;16.80;;;7.07;;
70899;SDS011;67902;52.154;5.430;2023-11-21T06:58:45;14.95;;;5.18;;
70899;SDS011;67902;52.154;5.430;2023-11-21T07:01:13;16.08;;;7.13;;
70899;SDS011;67902;52.154;5.430;2023-11-21T07:03:40;14.10;;;6.00;;
70899;SDS011;67902;52.154;5.430;2023-11-21T07:06:07;14.05;;;5.35;;
70899;SDS011;67902;52.154;5.430;2023-11-21T07:08:34;13.75;;;5.65;;
70899;SDS011;67902;52.154;5.430;2023-11-21T07:11:01;12.07;;;5.35;;
70899;SDS011;67902;52.154;5.430;2023-11-21T07:13:29;14.23;;;5.82;;
70899;SDS011;67902;52.154;5.430;2023-11-21T07:15:57;19.17;;;6.30;;
70899;SDS011;67902;52.154;5.430;2023-11-21T07:18:25;14.45;;;5.15;;
70899;SDS011;67902;52.154;5.430;2023-11-21T07:20:52;16.65;;;5.88;;
70899;SDS011;67902;52.154;5.430;2023-11-21T07:23:18;13.73;;;5.72;;
70899;SDS011;67902;52.154;5.430;2023-11-21T07:25:45;16.08;;;5.15;;
70899;SDS011;67902;52.154;5.430;2023-11-21T07:28:11;16.50;;;5.55;;
70899;SDS011;67902;52.154;5.430;2023-11-21T07:30:39;14.55;;;5.13;;
70899;SDS011;67902;52.154;5.430;2023-11-21T07:33:06;18.00;;;6.63;;
70899;SDS011;67902;52.154;5.430;2023-11-21T07:38:00;14.40;;;5.32;;
70899;SDS011;67902;52.154;5.430;2023-11-21T07:40:26;11.07;;;4.75;;
70899;SDS011;67902;52.154;5.430;2023-11-21T07:42:57;15.38;;;5.13;;
70899;SDS011;67902;52.154;5.430;2023-11-21T07:45:23;10.93;;;4.60;;
70899;SDS011;67902;52.154;5.430;2023-11-21T07:47:49;10.73;;;4.13;;
70899;SDS011;67902;52.154;5.430;2023-11-21T07:50:16;14.95;;;5.00;;
70899;SDS011;67902;52.154;5.430;2023-11-21T07:52:43;13.40;;;4.25;;
70899;SDS011;67902;52.154;5.430;2023-11-21T07:55:10;9.82;;;4.20;;
70899;SDS011;67902;52.154;5.430;2023-11-21T07:57:37;11.05;;;4.00;;
70899;SDS011;67902;52.154;5.430;2023-11-21T08:00:04;11.00;;;4.38;;
70899;SDS011;67902;52.154;5.430;2023-11-21T08:02:35;21.33;;;4.47;;
70899;SDS011;67902;52.154;5.430;2023-11-21T08:05:02;12.63;;;4.00;;
70899;SDS011;67902;52.154;5.430;2023-11-21T08:07:28;14.77;;;3.92;;
70899;SDS011;67902;52.154;5.430;2023-11-21T08:09:55;13.63;;;3.97;;
70899;SDS011;67902;52.154;5.430;2023-11-21T08:14:50;14.25;;;4.00;;
70899;SDS011;67902;52.154;5.430;2023-11-21T08:17:16;12.82;;;3.90;;
70899;SDS011;67902;52.154;5.430;2023-11-21T08:19:44;10.55;;;3.70;;
70899;SDS011;67902;52.154;5.430;2023-11-21T08:22:11;13.20;;;3.70;;
70899;SDS011;67902;52.154;5.430;2023-11-21T08:24:37;10.02;;;3.60;;
70899;SDS011;67902;52.154;5.430;2023-11-21T08:27:04;10.13;;;3.78;;
70899;SDS011;67902;52.154;5.430;2023-11-21T08:29:30;16.85;;;3.28;;
70899;SDS011;67902;52.154;5.430;2023-11-21T08:31:57;9.75;;;3.58;;
70899;SDS011;67902;52.154;5.430;2023-11-21T08:34:24;13.63;;;3.17;;
70899;SDS011;67902;52.154;5.430;2023-11-21T08:36:51;10.02;;;3.20;;
70899;SDS011;67902;52.154;5.430;2023-11-21T08:39:17;9.25;;;3.45;;
70899;SDS011;67902;52.154;5.430;2023-11-21T08:41:45;9.15;;;2.97;;
70899;SDS011;67902;52.154;5.430;2023-11-21T08:44:11;8.02;;;3.15;;
70899;SDS011;67902;52.154;5.430;2023-11-21T08:46:38;12.93;;;4.03;;
70899;SDS011;67902;52.154;5.430;2023-11-21T08:49:06;10.77;;;3.63;;
70899;SDS011;67902;52.154;5.430;2023-11-21T08:51:32;10.48;;;3.63;;
70899;SDS011;67902;52.154;5.430;2023-11-21T08:54:06;9.32;;;3.30;;
70899;SDS011;67902;52.154;5.430;2023-11-21T08:56:57;13.05;;;4.50;;
70899;SDS011;67902;52.154;5.430;2023-11-21T08:59:27;15.00;;;4.50;;
70899;SDS011;67902;52.154;5.430;2023-11-21T09:01:53;12.55;;;4.93;;
70899;SDS011;67902;52.154;5.430;2023-11-21T09:04:20;15.05;;;4.82;;
70899;SDS011;67902;52.154;5.430;2023-11-21T09:06:46;16.25;;;4.95;;
70899;SDS011;67902;52.154;5.430;2023-11-21T09:09:12;18.83;;;5.70;;
70899;SDS011;67902;52.154;5.430;2023-11-21T09:11:40;15.63;;;5.60;;
70899;SDS011;67902;52.154;5.430;2023-11-21T09:14:06;15.73;;;4.80;;
70899;SDS011;67902;52.154;5.430;2023-11-21T09:16:33;14.73;;;5.75;;
70899;SDS011;67902;52.154;5.430;2023-11-21T09:18:59;14.55;;;5.80;;
70899;SDS011;67902;52.154;5.430;2023-11-21T09:21:28;20.83;;;6.25;;
70899;SDS011;67902;52.154;5.430;2023-11-21T09:23:54;18.55;;;6.53;;
70899;SDS011;67902;52.154;5.430;2023-11-21T09:26:21;14.75;;;5.70;;
70899;SDS011;67902;52.154;5.430;2023-11-21T09:28:47;16.33;;;6.15;;
70899;SDS011;67902;52.154;5.430;2023-11-21T09:31:14;16.45;;;5.80;;
70899;SDS011;67902;52.154;5.430;2023-11-21T09:36:11;15.32;;;5.70;;
70899;SDS011;67902;52.154;5.430;2023-11-21T09:38:40;14.48;;;6.28;;
70899;SDS011;67902;52.154;5.430;2023-11-21T09:41:20;17.35;;;5.38;;
70899;SDS011;67902;52.154;5.430;2023-11-21T09:43:51;16.52;;;5.57;;
70899;SDS011;67902;52.154;5.430;2023-11-21T09:46:22;16.00;;;6.32;;
70899;SDS011;67902;52.154;5.430;2023-11-21T09:48:50;17.75;;;6.18;;
70899;SDS011;67902;52.154;5.430;2023-11-21T09:51:22;16.42;;;5.90;;
70899;SDS011;67902;52.154;5.430;2023-11-21T09:53:53;14.40;;;5.55;;
70899;SDS011;67902;52.154;5.430;2023-11-21T09:56:20;15.35;;;5.93;;
70899;SDS011;67902;52.154;5.430;2023-11-21T09:58:50;15.23;;;5.55;;
70899;SDS011;67902;52.154;5.430;2023-11-21T10:01:19;13.73;;;5.30;;
70899;SDS011;67902;52.154;5.430;2023-11-21T10:03:47;14.07;;;5.85;;
70899;SDS011;67902;52.154;5.430;2023-11-21T10:06:14;16.23;;;5.70;;
70899;SDS011;67902;52.154;5.430;2023-11-21T10:08:42;17.00;;;4.97;;
70899;SDS011;67902;52.154;5.430;2023-11-21T10:11:20;16.35;;;5.50;;
70899;SDS011;67902;52.154;5.430;2023-11-21T10:13:52;14.88;;;4.82;;
70899;SDS011;67902;52.154;5.430;2023-11-21T10:16:20;13.73;;;4.88;;
70899;SDS011;67902;52.154;5.430;2023-11-21T10:18:50;12.35;;;4.45;;
70899;SDS011;67902;52.154;5.430;2023-11-21T10:21:28;13.68;;;4.90;;
70899;SDS011;67902;52.154;5.430;2023-11-21T10:23:56;17.35;;;5.43;;
70899;SDS011;67902;52.154;5.430;2023-11-21T10:26:23;16.08;;;5.25;;
70899;SDS011;67902;52.154;5.430;2023-11-21T10:28:57;13.05;;;4.68;;
70899;SDS011;67902;52.154;5.430;2023-11-21T10:31:28;13.73;;;5.15;;
70899;SDS011;67902;52.154;5.430;2023-11-21T10:34:15;14.30;;;5.50;;
70899;SDS011;67902;52.154;5.430;2023-11-21T10:36:42;16.70;;;5.07;;
70899;SDS011;67902;52.154;5.430;2023-11-21T10:39:09;15.18;;;5.35;;
70899;SDS011;67902;52.154;5.430;2023-11-21T10:41:44;14.80;;;5.40;;
70899;SDS011;67902;52.154;5.430;2023-11-21T10:44:18;15.00;;;4.70;;
70899;SDS011;67902;52.154;5.430;2023-11-21T10:46:51;14.43;;;4.35;;
70899;SDS011;67902;52.154;5.430;2023-11-21T10:49:22;12.27;;;4.80;;
70899;SDS011;67902;52.154;5.430;2023-11-21T10:51:51;13.40;;;4.47;;
70899;SDS011;67902;52.154;5.430;2023-11-21T10:54:19;13.75;;;4.85;;
70899;SDS011;67902;52.154;5.430;2023-11-21T10:56:50;14.23;;;4.72;;
70899;SDS011;67902;52.154;5.430;2023-11-21T10:59:22;14.90;;;5.00;;
70899;SDS011;67902;52.154;5.430;2023-11-21T11:01:51;14.15;;;4.95;;
70899;SDS011;67902;52.154;5.430;2023-11-21T11:04:19;11.32;;;4.45;;
70899;SDS011;67902;52.154;5.430;2023-11-21T11:06:49;18.02;;;5.50;;
70899;SDS011;67902;52.154;5.430;2023-11-21T11:09:20;15.02;;;6.22;;
70899;SDS011;67902;52.154;5.430;2023-11-21T11:11:47;14.60;;;5.72;;
70899;SDS011;67902;52.154;5.430;2023-11-21T11:14:15;13.75;;;5.05;;
70899;SDS011;67902;52.154;5.430;2023-11-21T11:16:43;17.45;;;5.63;;
70899;SDS011;67902;52.154;5.430;2023-11-21T11:19:09;12.63;;;5.30;;
70899;SDS011;67902;52.154;5.430;2023-11-21T11:22:00;13.57;;;5.03;;
70899;SDS011;67902;52.154;5.430;2023-11-21T11:30:26;15.27;;;5.10;;
70899;SDS011;67902;52.154;5.430;2023-11-21T11:33:31;11.25;;;4.45;;
70899;SDS011;67902;52.154;5.430;2023-11-21T11:36:03;12.68;;;5.05;;
70899;SDS011;67902;52.154;5.430;2023-11-21T11:38:48;13.43;;;5.57;;
70899;SDS011;67902;52.154;5.430;2023-11-21T11:41:25;15.60;;;5.95;;
70899;SDS011;67902;52.154;5.430;2023-11-21T11:43:53;13.75;;;5.97;;
70899;SDS011;67902;52.154;5.430;2023-11-21T11:46:21;11.80;;;5.03;;
70899;SDS011;67902;52.154;5.430;2023-11-21T11:49:08;16.17;;;6.40;;
70899;SDS011;67902;52.154;5.430;2023-11-21T11:51:34;16.50;;;5.80;;
70899;SDS011;67902;52.154;5.430;2023-11-21T11:54:05;15.80;;;7.00;;
70899;SDS011;67902;52.154;5.430;2023-11-21T11:56:33;15.55;;;6.97;;
70899;SDS011;67902;52.154;5.430;2023-11-21T11:59:02;16.85;;;6.75;;
70899;SDS011;67902;52.154;5.430;2023-11-21T12:01:31;19.63;;;7.22;;
70899;SDS011;67902;52.154;5.430;2023-11-21T12:06:41;19.48;;;7.55;;
70899;SDS011;67902;52.154;5.430;2023-11-21T12:09:17;17.52;;;7.20;;
70899;SDS011;67902;52.154;5.430;2023-11-21T12:11:45;17.23;;;7.13;;
70899;SDS011;67902;52.154;5.430;2023-11-21T12:14:12;17.17;;;6.28;;
70899;SDS011;67902;52.154;5.430;2023-11-21T12:16:39;17.90;;;6.75;;
70899;SDS011;67902;52.154;5.430;2023-11-21T12:19:06;18.80;;;7.07;;
70899;SDS011;67902;52.154;5.430;2023-11-21T12:21:33;18.83;;;7.32;;
70899;SDS011;67902;52.154;5.430;2023-11-21T12:24:00;17.40;;;6.85;;
70899;SDS011;67902;52.154;5.430;2023-11-21T12:26:26;20.08;;;7.35;;
70899;SDS011;67902;52.154;5.430;2023-11-21T12:28:53;21.20;;;8.10;;
70899;SDS011;67902;52.154;5.430;2023-11-21T12:31:23;18.33;;;7.28;;
70899;SDS011;67902;52.154;5.430;2023-11-21T12:36:17;14.98;;;6.18;;
70899;SDS011;67902;52.154;5.430;2023-11-21T12:38:43;19.15;;;7.45;;
70899;SDS011;67902;52.154;5.430;2023-11-21T12:41:10;21.55;;;6.78;;
70899;SDS011;67902;52.154;5.430;2023-11-21T12:43:36;18.45;;;6.72;;
70899;SDS011;67902;52.154;5.430;2023-11-21T12:46:06;15.52;;;6.40;;
70899;SDS011;67902;52.154;5.430;2023-11-21T12:48:39;18.73;;;6.75;;
70899;SDS011;67902;52.154;5.430;2023-11-21T12:51:10;19.15;;;7.43;;
70899;SDS011;67902;52.154;5.430;2023-11-21T12:53:38;19.38;;;7.22;;
70899;SDS011;67902;52.154;5.430;2023-11-21T12:56:11;16.17;;;6.78;;
70899;SDS011;67902;52.154;5.430;2023-11-21T12:58:38;19.75;;;7.18;;
70899;SDS011;67902;52.154;5.430;2023-11-21T13:01:07;18.48;;;7.07;;
70899;SDS011;67902;52.154;5.430;2023-11-21T13:03:38;15.35;;;6.38;;
70899;SDS011;67902;52.154;5.430;2023-11-21T13:06:06;18.88;;;7.05;;
70899;SDS011;67902;52.154;5.430;2023-11-21T13:08:36;18.77;;;5.18;;
70899;SDS011;67902;52.154;5.430;2023-11-21T13:11:05;15.43;;;5.80;;
70899;SDS011;67902;52.154;5.430;2023-11-21T13:13:32;15.40;;;5.65;;
70899;SDS011;67902;52.154;5.430;2023-11-21T13:16:00;11.80;;;4.25;;
70899;SDS011;67902;52.154;5.430;2023-11-21T13:18:28;11.15;;;3.88;;
70899;SDS011;67902;52.154;5.430;2023-11-21T13:20:56;8.15;;;3.03;;
70899;SDS011;67902;52.154;5.430;2023-11-21T13:23:25;8.35;;;2.88;;
70899;SDS011;67902;52.154;5.430;2023-11-21T13:25:53;11.38;;;3.35;;
70899;SDS011;67902;52.154;5.430;2023-11-21T13:28:30;9.68;;;3.17;;
70899;SDS011;67902;52.154;5.430;2023-11-21T13:31:00;7.95;;;2.85;;
70899;SDS011;67902;52.154;5.430;2023-11-21T13:33:37;8.88;;;3.05;;
70899;SDS011;67902;52.154;5.430;2023-11-21T13:36:09;9.85;;;3.20;;
70899;SDS011;67902;52.154;5.430;2023-11-21T13:38:37;10.70;;;3.75;;
70899;SDS011;67902;52.154;5.430;2023-11-21T13:41:08;8.48;;;2.90;;
70899;SDS011;67902;52.154;5.430;2023-11-21T13:43:36;10.50;;;3.50;;
70899;SDS011;67902;52.154;5.430;2023-11-21T13:46:03;11.55;;;3.83;;
70899;SDS011;67902;52.154;5.430;2023-11-21T13:48:40;11.88;;;3.28;;
70899;SDS011;67902;52.154;5.430;2023-11-21T13:51:14;12.95;;;4.38;;
70899;SDS011;67902;52.154;5.430;2023-11-21T13:53:45;12.60;;;4.60;;
70899;SDS011;67902;52.154;5.430;2023-11-21T13:56:17;13.38;;;5.47;;
70899;SDS011;67902;52.154;5.430;2023-11-21T13:58:50;15.15;;;5.25;;
70899;SDS011;67902;52.154;5.430;2023-11-21T14:01:18;15.43;;;6.10;;
70899;SDS011;67902;52.154;5.430;2023-11-21T14:04:01;17.02;;;6.43;;
70899;SDS011;67902;52.154;5.430;2023-11-21T14:06:49;18.88;;;6.70;;
70899;SDS011;67902;52.154;5.430;2023-11-21T14:09:18;18.50;;;7.30;;
70899;SDS011;67902;52.154;5.430;2023-11-21T14:11:53;19.20;;;7.03;;
70899;SDS011;67902;52.154;5.430;2023-11-21T14:14:24;17.05;;;6.55;;
70899;SDS011;67902;52.154;5.430;2023-11-21T14:16:52;19.23;;;7.30;;
70899;SDS011;67902;52.154;5.430;2023-11-21T14:19:19;18.92;;;7.82;;
70899;SDS011;67902;52.154;5.430;2023-11-21T14:21:46;18.48;;;6.60;;
70899;SDS011;67902;52.154;5.430;2023-11-21T14:24:15;17.15;;;7.03;;
70899;SDS011;67902;52.154;5.430;2023-11-21T14:26:44;16.13;;;7.15;;
70899;SDS011;67902;52.154;5.430;2023-11-21T14:29:12;19.30;;;7.75;;
70899;SDS011;67902;52.154;5.430;2023-11-21T14:31:42;21.13;;;8.38;;
70899;SDS011;67902;52.154;5.430;2023-11-21T14:36:38;19.02;;;7.18;;
70899;SDS011;67902;52.154;5.430;2023-11-21T14:39:07;16.55;;;6.43;;
70899;SDS011;67902;52.154;5.430;2023-11-21T14:41:37;20.75;;;7.30;;
70899;SDS011;67902;52.154;5.430;2023-11-21T14:44:05;17.70;;;7.22;;
70899;SDS011;67902;52.154;5.430;2023-11-21T14:46:38;19.00;;;7.78;;
70899;SDS011;67902;52.154;5.430;2023-11-21T14:49:06;20.58;;;7.25;;
70899;SDS011;67902;52.154;5.430;2023-11-21T14:51:50;23.30;;;8.77;;
70899;SDS011;67902;52.154;5.430;2023-11-21T14:54:30;18.90;;;7.75;;
70899;SDS011;67902;52.154;5.430;2023-11-21T14:57:07;22.38;;;8.20;;
70899;SDS011;67902;52.154;5.430;2023-11-21T14:59:42;23.95;;;8.63;;
70899;SDS011;67902;52.154;5.430;2023-11-21T15:02:13;26.00;;;8.98;;
70899;SDS011;67902;52.154;5.430;2023-11-21T15:04:44;22.20;;;8.48;;
70899;SDS011;67902;52.154;5.430;2023-11-21T15:07:10;25.25;;;9.50;;
70899;SDS011;67902;52.154;5.430;2023-11-21T15:09:40;20.58;;;8.25;;